Data for 07/29/2007

Time Sea-Level Adjusted Pressure Absolute Pressure Temperature Relative Humidity Dew Point   
(mb) (inHg) (mb) (inHg) (C) (F) (%) (C) (F)
00:05 1019 30.09 848 25.04 22.6 72.7 34 6 42.8
00:10 1019 30.09 848 25.04 22.4 72.4 33 5.6 42.1
00:15 1019 30.09 848 25.04 22.6 72.6 32 5.4 41.7
00:20 1019 30.09 848 25.04 22.6 72.6 33 5.8 42.4
00:25 1019 30.09 848 25.04 22.6 72.7 33 5.6 42.2
00:30 1019 30.09 848 25.04 22.7 72.9 33 5.7 42.3
00:35 1019 30.09 848 25.04 22.6 72.7 34 6 42.7
00:40 1019 30.09 848 25.04 22.4 72.4 33 5.8 42.4
00:45 1019 30.09 848 25.04 22.4 72.3 33 5.6 42.1
00:50 1019 30.09 848 25.04 22.1 71.8 35 6.1 43
00:55 1019 30.09 848 25.04 21.6 70.9 35 5.7 42.3
01:00 1019 30.09 848 25.04 21.7 71.1 35 5.9 42.6
01:05 1019 30.09 848 25.04 21.8 71.2 35 5.9 42.6
01:10 1019 30.09 848 25.04 21.6 71 38 6.9 44.5
01:15 1019 30.09 848 25.04 21.5 70.6 36 5.9 42.6
01:20 1019 30.09 848 25.04 21.6 70.8 35 5.6 42
01:25 1019 30.09 848 25.04 21.8 71.3 34 5.6 42
01:30 1019 30.09 848 25.04 22 71.6 34 5.6 42.2
01:35 1019 30.09 848 25.04 21.9 71.5 35 6.1 42.9
01:40 1019 30.09 848 25.04 21.4 70.6 35 5.7 42.2
01:45 1019 30.09 848 25.04 21.5 70.6 35 5.7 42.3
01:50 1019 30.09 848 25.04 21.2 70.1 37 6 42.8
01:55 1019 30.09 848 25.04 20.8 69.5 39 6.3 43.4
02:00 1019 30.09 848 25.04 20.6 69.1 38 5.9 42.7
02:05 1019 30.09 848 25.04 20.4 68.7 40 6.6 43.8
02:10 1019 30.09 848 25.04 19.7 67.5 42 6.6 43.9
02:15 1019 30.09 848 25.04 19.6 67.3 41 6.3 43.3
02:20 1019 30.09 848 25.04 19.3 66.8 43 6.7 44.1
02:25 1019 30.09 848 25.04 18.9 66 45 6.8 44.3
02:30 1019 30.09 848 25.04 18.7 65.6 45 6.8 44.2
02:35 1019 30.09 848 25.04 18.8 65.8 45 6.6 44
02:40 1019 30.09 848 25.04 18.8 65.8 45 6.8 44.2
02:45 1019 30.09 848 25.04 18.6 65.5 46 7.1 44.7
02:50 1019 30.09 848 25.04 18.7 65.6 43 6.1 42.9
02:55 1019 30.09 848 25.04 19.5 67 41 6.1 42.9
03:00 1019 30.09 848 25.04 19.8 67.6 41 6.4 43.6
03:05 1019 30.09 848 25.04 20 68 40 6.2 43.2
03:10 1019 30.09 848 25.04 19.7 67.5 41 6.3 43.3
03:15 1019 30.09 848 25.04 19.6 67.2 41 6 42.7
03:20 1019 30.09 848 25.04 19.9 67.8 39 5.7 42.2
03:25 1019 30.09 848 25.04 19.9 67.9 40 6 42.7
03:30 1019 30.09 848 25.04 19.7 67.5 41 6.2 43.1
03:35 1019 30.09 848 25.04 19.6 67.2 41 6.2 43.2
03:40 1019 30.09 848 25.04 19.4 66.9 41 6.1 43
03:45 1019 30.09 848 25.04 19.4 66.9 41 5.8 42.4
03:50 1019 30.09 848 25.04 19.8 67.6 40 5.9 42.5
03:55 1019 30.09 848 25.04 19.9 67.8 41 6.3 43.3
04:00 1019 30.09 848 25.04 19.8 67.6 41 6.2 43.2
04:05 1019 30.09 848 25.04 19.8 67.7 40 6 42.9
04:10 1019 30.09 848 25.04 20.1 68.1 40 6.2 43.2
04:15 1019 30.09 848 25.04 20 68 41 6.5 43.7
04:20 1019 30.09 848 25.04 19.9 67.8 40 6.1 43.1
04:25 1019 30.09 848 25.04 20.2 68.3 39 6.1 43
04:30 1019 30.09 848 25.04 20.4 68.7 39 6 42.8
04:35 1019 30.09 848 25.04 20.7 69.2 38 6 42.9
04:40 1019 30.09 848 25.04 20.7 69.3 39 6.4 43.6
04:45 1019 30.09 848 25.04 20.2 68.4 43 7.3 45.2
04:50 1019 30.09 848 25.04 19.7 67.4 43 7 44.5
04:55 1019 30.09 848 25.04 19.5 67.2 43 6.7 44.1
05:00 1019 30.09 848 25.04 19.6 67.2 43 6.9 44.4
05:05 1019 30.09 848 25.04 19.7 67.5 41 6.4 43.5
05:10 1019 30.09 848 25.04 20 68 41 6.5 43.6
05:15 1019 30.09 848 25.04 20.2 68.3 41 6.6 43.8
05:20 1019 30.09 848 25.04 20.2 68.3 41 6.6 43.8
05:25 1019 30.09 848 25.04 20.3 68.5 40 6.3 43.4
05:30 1019 30.09 848 25.04 20.4 68.8 39 6.2 43.1
05:35 1019 30.09 848 25.04 20.5 68.9 39 6.2 43.2
05:40 1019 30.09 848 25.04 20.4 68.8 40 6.4 43.5
05:45 1019 30.09 848 25.04 20.2 68.4 41 6.6 43.8
05:50 1019 30.09 848 25.04 20 68 41 6.4 43.5
05:55 1019 30.09 848 25.04 19.9 67.8 41 6.6 43.8
06:00 1019 30.09 848 25.04 19.8 67.7 42 6.7 44.1
06:05 1019 30.09 848 25.04 19.6 67.2 46 7.9 46.2
06:10 1019 30.09 848 25.04 19.4 66.8 46 7.6 45.7
06:15 1019 30.09 848 25.04 19.8 67.6 42 6.6 43.9
06:20 1019 30.09 848 25.04 19.9 67.7 43 6.9 44.5
06:25 1019 30.09 848 25.04 20 68.1 40 6.2 43.2
06:30 1019 30.09 849 25.07 20.5 69 39 6.2 43.2
06:35 1019 30.09 849 25.07 20.5 68.8 40 6.7 44
06:40 1019 30.09 849 25.07 20.1 68.1 42 7 44.6
06:45 1019 30.09 849 25.07 19.8 67.6 43 6.9 44.5
06:50 1020 30.12 849 25.07 19.6 67.4 48 8.5 47.3
06:55 1020 30.12 849 25.07 19.4 66.9 48 8.3 46.9
07:00 1020 30.12 849 25.07 18.7 65.7 51 8.4 47.1
07:05 1020 30.12 849 25.07 18.6 65.4 49 7.7 45.9
07:10 1020 30.12 849 25.07 19 66.2 50 8.5 47.4
07:15 1020 30.12 849 25.07 19.1 66.4 50 8.6 47.4
07:20 1020 30.12 849 25.07 19 66.1 50 8.3 47
07:25 1020 30.12 849 25.07 18.9 66 51 8.6 47.5
07:30 1020 30.12 849 25.07 18.9 66 51 8.8 47.8
07:35 1020 30.12 849 25.07 18.9 66 54 9.5 49
07:40 1020 30.12 849 25.07 18.9 66.1 50 8.5 47.3
07:45 1020 30.12 849 25.07 19.2 66.6 49 8.3 46.9
07:50 1020 30.12 849 25.07 19.5 67 49 8.6 47.5
07:55 1020 30.12 849 25.07 19.7 67.4 48 8.4 47.1
08:00 1020 30.12 849 25.07 19.8 67.7 48 8.6 47.4
08:05 1020 30.12 849 25.07 19.9 67.9 48 8.8 47.9
08:10 1020 30.12 849 25.07 20.1 68.1 47 8.6 47.4
08:15 1020 30.12 849 25.07 20.2 68.4 50 9.6 49.4
08:20 1020 30.12 849 25.07 20.2 68.3 50 9.5 49.1
08:25 1020 30.12 849 25.07 20.5 68.9 49 9.6 49.4
08:30 1020 30.12 849 25.07 20.7 69.3 46 9 48.1
08:35 1020 30.12 849 25.07 20.8 69.5 46 8.8 47.9
08:40 1020 30.12 849 25.07 21.1 70 46 9.1 48.4
08:45 1020 30.12 849 25.07 21.2 70.1 47 9.6 49.3
08:50 1020 30.12 849 25.07 21.7 71 46 9.6 49.3
08:55 1020 30.12 849 25.07 22.2 71.9 45 10 50
09:00 1020 30.12 849 25.07 22.5 72.4 48 11.2 52.2
09:05 1020 30.12 849 25.07 22.5 72.5 48 11 51.7
09:10 1020 30.12 849 25.07 22.5 72.5 47 10.7 51.2
09:15 1020 30.12 849 25.07 23.1 73.5 42 9.7 49.4
09:20 1020 30.12 849 25.07 23.3 73.9 44 10.6 51.1
09:25 1020 30.12 849 25.07 23.5 74.2 45 11 51.8
09:30 1020 30.12 849 25.07 23.7 74.6 40 9.5 49
09:35 1020 30.12 849 25.07 23.6 74.5 41 9.6 49.3
09:40 1020 30.12 849 25.07 23.8 74.9 41 10.1 50.1
09:45 1020 30.12 849 25.07 23.6 74.4 44 10.7 51.3
09:50 1020 30.12 849 25.07 23.6 74.4 40 9.5 49.1
09:55 1020 30.12 849 25.07 23.8 74.8 38 8.9 48.1
10:00 1020 30.12 849 25.07 23.8 74.8 40 9.5 49.1
10:05 1020 30.12 849 25.07 24.3 75.7 40 10 50.1
10:10 1020 30.12 849 25.07 24.4 75.9 38 9.4 48.9
10:15 1020 30.12 849 25.07 24.7 76.4 41 10.7 51.2
10:20 1020 30.12 849 25.07 25 77.1 35 8.8 47.9
10:25 1020 30.12 849 25.07 25.1 77.2 35 8.8 47.8
10:30 1020 30.12 849 25.07 25.3 77.5 37 9.8 49.6
10:35 1020 30.12 849 25.07 25.5 78 34 8.9 48.1
10:40 1020 30.12 849 25.07 26.1 79 33 9 48.2
10:45 1020 30.12 849 25.07 26.6 79.9 31 8.4 47
10:50 1020 30.12 849 25.07 27.2 80.9 33 9.9 49.8
10:55 1020 30.12 849 25.07 27.3 81.2 31 9.1 48.4
11:00 1020 30.12 849 25.07 27.3 81.1 32 9.4 48.8
11:05 1020 30.12 849 25.07 27.1 80.8 33 9.8 49.6
11:10 1019 30.09 849 25.07 27.6 81.7 32 9.6 49.3
11:15 1019 30.09 849 25.07 28 82.3 30 9 48.2
11:20 1019 30.09 849 25.07 27.7 81.8 30 9 48.3
11:25 1019 30.09 849 25.07 27.8 82 28 7.7 45.9
11:30 1019 30.09 849 25.07 27.9 82.3 28 8 46.4
11:35 1019 30.09 849 25.07 28.2 82.7 28 8.2 46.7
11:40 1019 30.09 848 25.04 29 84.2 26 7.9 46.2
11:45 1019 30.09 848 25.04 29.1 84.4 25 7.3 45.1
11:50 1019 30.09 848 25.04 28.8 83.9 25 6.9 44.4
11:55 1019 30.09 848 25.04 29.4 84.9 24 7.3 45.2
12:00 1019 30.09 848 25.04 29.7 85.5 23 7 44.6
12:05 1019 30.09 848 25.04 29.7 85.4 24 7.4 45.3
12:10 1019 30.09 848 25.04 30.3 86.5 21 5.7 42.2
12:15 1019 30.09 848 25.04 30.3 86.6 21 5.6 42
12:20 1019 30.09 848 25.04 30.6 87.1 20 5.4 41.8
12:25 1019 30.09 848 25.04 31.1 88.1 19 4.9 40.8
12:30 1019 30.09 848 25.04 31.9 89.5 18 5 41.1
12:35 1019 30.09 848 25.04 31.8 89.2 17 4.3 39.8
12:40 1019 30.09 848 25.04 31.8 89.2 19 6 42.8
12:45 1019 30.09 848 25.04 32.3 90.2 15 2.8 37.1
12:50 1019 30.09 848 25.04 32.6 90.6 14 2.5 36.5
12:55 1018 30.06 848 25.04 33.4 92.1 15 3.5 38.3
13:00 1018 30.06 848 25.04 33.4 92.1 15 4 39.2
13:05 1018 30.06 848 25.04 32.4 90.2 16 3.4 38.2
13:10 1018 30.06 848 25.04 32.5 90.5 16 3.6 38.5
13:15 1018 30.06 848 25.04 32.4 90.3 15 3.1 37.6
13:20 1018 30.06 847 25.01 33.2 91.8 14 2.6 36.7
13:25 1018 30.06 847 25.01 34.1 93.4 14 3 37.3
13:30 1018 30.06 847 25.01 34.3 93.7 13 2.8 37
13:35 1018 30.06 847 25.01 33.6 92.5 13 2.4 36.2
13:40 1018 30.06 847 25.01 33.7 92.7 14 2.8 37
13:45 1018 30.06 847 25.01 33.7 92.6 14 2.5 36.5
13:50 1018 30.06 847 25.01 34.2 93.5 13 2.5 36.4
13:55 1018 30.06 847 25.01 34.8 94.7 13 2.8 37
14:00 1018 30.06 847 25.01 34.6 94.3 13 2.6 36.7
14:05 1018 30.06 847 25.01 34.6 94.3 13 3 37.5
14:10 1018 30.06 847 25.01 34.4 94 13 2 35.6
14:15 1018 30.06 847 25.01 33.9 92.9 13 2.2 35.9
14:20 1018 30.06 847 25.01 33.8 92.8 15 3.7 38.6
14:25 1018 30.06 847 25.01 33.7 92.7 12 1.2 34.2
14:30 1018 30.06 847 25.01 34.2 93.6 12 1.5 34.6
14:35 1018 30.06 847 25.01 34 93.2 12 1.3 34.4
14:40 1018 30.06 847 25.01 34.2 93.6 12 0.6 33.1
14:45 1018 30.06 847 25.01 34.1 93.4 11 0.5 32.9
14:50 1018 30.06 847 25.01 33.8 92.8 11 -0.5 31.1
14:55 1018 30.06 847 25.01 34.9 94.8 10 -0.6 30.8
15:00 1018 30.06 847 25.01 34.7 94.5 10 -0.5 31.1
15:05 1018 30.06 847 25.01 35.3 95.6 10 0.1 32.2
15:10 1018 30.06 847 25.01 35.6 96.1 10 -0.4 31.2
15:15 1018 30.06 847 25.01 35.4 95.7 11 1.2 34.2
15:20 1018 30.06 847 25.01 34.8 94.6 11 0.8 33.4
15:25 1017 30.03 847 25.01 34.1 93.4 13 2 35.6
15:30 1017 30.03 847 25.01 32.6 90.7 15 3 37.4
15:35 1017 30.03 847 25.01 31.6 88.9 16 3 37.5
15:40 1017 30.03 846 24.98 31 87.9 18 4 39.3
15:45 1017 30.03 846 24.98 31.3 88.4 16 2.6 36.8
15:50 1017 30.03 846 24.98 31.6 88.8 15 2.6 36.6
15:55 1017 30.03 846 24.98 31.8 89.2 16 2.9 37.1
16:00 1017 30.03 846 24.98 31.4 88.5 16 2.9 37.1
16:05 1017 30.03 846 24.98 31.9 89.4 15 2.9 37.2
16:10 1017 30.03 846 24.98 31.8 89.2 15 2.1 35.8
16:15 1017 30.03 846 24.98 32.3 90.1 15 2.3 36.1
16:20 1017 30.03 846 24.98 32.5 90.5 14 1.5 34.7
16:25 1017 30.03 846 24.98 32.4 90.4 14 2 35.6
16:30 1017 30.03 846 24.98 32.8 91.1 13 1.2 34.1
16:35 1017 30.03 846 24.98 32.8 91.1 13 1.6 34.9
16:40 1017 30.03 846 24.98 32.7 90.8 14 1.7 35.1
16:45 1017 30.03 846 24.98 32.8 91 13 1.5 34.7
16:50 1017 30.03 846 24.98 32.9 91.2 13 1.8 35.2
16:55 1017 30.03 846 24.98 32.6 90.6 13 0.8 33.5
17:00 1017 30.03 846 24.98 32.7 90.9 13 1.1 34
17:05 1017 30.03 846 24.98 32.5 90.5 13 0.8 33.4
17:10 1017 30.03 846 24.98 32.7 90.8 12 0.3 32.6
17:15 1017 30.03 846 24.98 32.9 91.3 13 0.8 33.4
17:20 1017 30.03 846 24.98 33.2 91.7 13 1 33.7
17:25 1017 30.03 846 24.98 33.2 91.8 13 1.1 33.9
17:30 1017 30.03 846 24.98 32.6 90.8 13 1.5 34.6
17:35 1017 30.03 846 24.98 32.8 91.1 13 1.5 34.7
17:40 1017 30.03 846 24.98 33 91.4 12 0.5 33
17:45 1016 30 846 24.98 33.1 91.7 14 2.2 36
17:50 1016 30 846 24.98 33.4 92.1 13 2 35.6
17:55 1016 30 846 24.98 33.4 92.1 13 1.2 34.1
18:00 1016 30 846 24.98 33.1 91.5 13 1.5 34.7
18:05 1016 30 846 24.98 33.1 91.6 12 0.8 33.5
18:10 1016 30 846 24.98 33.5 92.4 12 0.7 33.3
18:15 1016 30 845 24.95 33.4 92 13 1.3 34.4
18:20 1016 30 845 24.95 33 91.4 14 2.6 36.7
18:25 1016 30 845 24.95 32.6 90.6 14 2 35.5
18:30 1016 30 845 24.95 32.4 90.4 15 2.9 37.2
18:35 1016 30 845 24.95 32.4 90.3 15 2.9 37.1
18:40 1016 30 845 24.95 32.4 90.4 14 1.8 35.3
18:45 1016 30 845 24.95 32.6 90.8 14 2.3 36.2
18:50 1016 30 845 24.95 32.4 90.2 15 2.5 36.5
18:55 1016 30 845 24.95 32.3 90.1 14 2.1 35.8
19:00 1016 30 845 24.95 32.3 90.1 15 2.5 36.6
19:05 1016 30 845 24.95 32.2 89.9 15 2.9 37.1
19:10 1016 30 845 24.95 32.1 89.8 16 3.7 38.7
19:15 1016 30 845 24.95 31.8 89.2 15 2.3 36.1
19:20 1016 30 845 24.95 31.5 88.7 16 2.8 37
19:25 1016 30 845 24.95 31.2 88.1 18 4.3 39.7
19:30 1016 30 845 24.95 31 87.8 16 2.3 36.2
19:35 1016 30 845 24.95 30.9 87.6 18 3.9 39.1
19:40 1016 30 845 24.95 30.6 87.1 19 5.1 41.2
19:45 1016 30 845 24.95 30.3 86.5 21 6 42.7
19:50 1016 30 845 24.95 30.1 86.1 20 5 41
19:55 1016 30 845 24.95 30 85.9 25 8.3 46.9
20:00 1016 30 845 24.95 29.6 85.4 22 6.1 43
20:05 1016 30 845 24.95 29.6 85.3 24 7.3 45.2
20:10 1016 30 845 24.95 29.2 84.6 25 7.7 45.8
20:15 1016 30 845 24.95 28.8 83.9 27 8.3 46.9
20:20 1016 30 845 24.95 28.5 83.2 24 6.2 43.2
20:25 1016 30 845 24.95 28.3 83 24 6 42.8
20:30 1016 30 845 24.95 28.2 82.8 21 4.2 39.6
20:35 1016 30 845 24.95 28.1 82.5 22 4.6 40.3
20:40 1016 30 845 24.95 27.8 82.1 25 6.4 43.5
20:45 1016 30 845 24.95 27.8 82.1 24 5.5 41.9
20:50 1016 30 845 24.95 27.8 82 26 6.8 44.3
20:55 1016 30 845 24.95 27.3 81.2 24 5 41.1
21:00 1016 30 845 24.95 26.5 79.8 26 5.9 42.6
21:05 1016 30 845 24.95 25.9 78.5 25 4.8 40.6
21:10 1016 30 845 24.95 25.7 78.2 25 4.5 40.1
21:15 1016 30 845 24.95 25.7 78.2 25 4.7 40.4
21:20 1016 30 846 24.98 25.7 78.2 24 4.1 39.4
21:25 1016 30 845 24.95 25.7 78.2 24 4.1 39.3
21:30 1016 30 846 24.98 25.9 78.6 23 3.7 38.6
21:35 1016 30 846 24.98 26 78.7 24 4.2 39.5
21:40 1017 30.03 846 24.98 25.9 78.6 23 3.4 38.1
21:45 1017 30.03 846 24.98 26.2 79.2 23 4 39.2
21:50 1017 30.03 846 24.98 26 78.8 23 3.8 38.8
21:55 1017 30.03 846 24.98 25.9 78.6 24 4 39.2
22:00 1017 30.03 846 24.98 25.5 77.9 28 5.8 42.4
22:05 1017 30.03 846 24.98 25 77 26 4.6 40.3
22:10 1017 30.03 846 24.98 24.6 76.3 29 5.6 42.1
22:15 1017 30.03 846 24.98 24.6 76.4 26 4.2 39.5
22:20 1017 30.03 846 24.98 24.3 75.8 27 4.2 39.5
22:25 1017 30.03 846 24.98 24.1 75.4 27 4.3 39.7
22:30 1017 30.03 846 24.98 24 75.1 28 4.4 39.9
22:35 1017 30.03 846 24.98 23.8 74.9 28 4.2 39.6
22:40 1017 30.03 846 24.98 23.9 74.9 28 4.2 39.6
22:45 1017 30.03 846 24.98 23.7 74.7 27 4.1 39.4
22:50 1017 30.03 846 24.98 23.7 74.7 28 4.2 39.5
22:55 1017 30.03 846 24.98 23.5 74.3 28 4.3 39.8
23:00 1017 30.03 846 24.98 23.4 74 29 4.3 39.8
23:05 1017 30.03 846 24.98 23.2 73.7 29 4.3 39.8
23:10 1017 30.03 846 24.98 23.1 73.5 32 5.7 42.2
23:15 1017 30.03 846 24.98 23 73.3 31 5 41
23:20 1017 30.03 846 24.98 22.9 73.3 28 3.9 39
23:25 1017 30.03 846 24.98 23.1 73.5 28 3.9 39
23:30 1017 30.03 846 24.98 23.1 73.5 28 4 39.2
23:35 1017 30.03 846 24.98 23 73.4 27 3.4 38.1
23:40 1017 30.03 846 24.98 23.2 73.8 27 3.6 38.5
23:45 1017 30.03 846 24.98 23.2 73.8 28 3.8 38.8
23:50 1017 30.03 846 24.98 23.2 73.7 28 3.8 38.8
23:55 1017 30.03 846 24.98 23.2 73.7 27 3.6 38.5
24:00 1017 30.03 846 24.98 22.9 73.1 28 3.7 38.6